Santa Marta, Colombia

11:22 AM COT on October 25, 2014 (GMT -0500)
Playa Salguero | Change Station
CLOSE
Current Station
Personal Weather Station
Location: Rodadero Sur Santa Marta, Magdalena
Elevation: 0 ft
Nearby Weather Stations

Elev 0 ft 11.19 °N, 74.23 °W | Updated 5 seconds ago

Partly Cloudy
Partly Cloudy
85.7 °F
Feels Like 99 °F
N
6.0
Wind Variable Wind from NW
Gusts 7.0 mph

Today
High -- | Low -- °F
--% Chance of Precip.
Yesterday
High -- | Low -- °F
Precip. -- in
5:47 AM 5:34 PM
Waxing Crescent, 3% visible
Pressure 29.86 in
Visibility 6.2 miles
Clouds Few 2000 ft
Heat Index 99 °F
Dew Point 79 °F
Humidity 81%
Rainfall 0.00 in
Snow Depth Not available.
UV 14 out of 12
Pollen Not available.
Air Quality Not available.
Flu Activity Not available.
METAR SKSM 251600Z 30004KT 9999 FEW020TCU 32/26 A2986 RMK TCU/E

More Conditions Fewer Conditions

Pressure 29.86 in
Visibility 6.2 miles
Clouds Few 2000 ft
Heat Index 99 °F
Dew Point 79 °F
Humidity 81%
Rainfall 0.00 in
Snow Depth Not available.
UV 14 out of 12
Pollen Not available.
Air Quality Not available.
Flu Activity Not available.
METAR SKSM 251600Z 30004KT 9999 FEW020TCU 32/26 A2986 RMK TCU/E

More Conditions Fewer Conditions

10-Day Weather Forecast

Almanac

Astronomy

Oct. 25, 2014 Rise Set
Actual Time 5:47 AM COT 5:34 PM COT
Civil Twilight 5:25 AM COT 5:56 PM COT
Nautical Twilight 5:00 AM COT 6:20 PM COT
Astronomical Twilight 4:35 AM COT 6:45 PM COT
Moon 7:11 AM COT 7:09 PM COT
Length of Visible Light 12h 30m
Length of Day
11h 47m
Tomorrow will be 0m 33s shorter.
Waxing Crescent, 3% of the Moon is Illuminated
Today
Waxing Crescent
Oct 30
First Quarter
Nov 6
Full
Nov 14
Last Quarter
Nov 22
New

Today's Extremes

Country Highs Country Lows

Community

WunderPhotos

Upload Photos

1,764,890 photos uploaded!

Nearby

Snow Depth

Not available.

Earthquake Activity

City Distance Mag. Time & Date
No recent earthquake activity has been reported nearby.
Minimum magnitude displayed is 2.5.

Coastal Water Temperatures

Place Temperature
No Stations Reporting

Nearby Weather Stations